createdAt,value
2018-12-15T00:02:22.732Z,2.43
2018-12-15T00:04:48.855Z,2.17
2018-12-15T00:07:14.987Z,1.57
2018-12-15T00:09:41.120Z,3.33
2018-12-15T00:12:07.256Z,2.03
2018-12-15T00:14:33.509Z,3.53
2018-12-15T00:17:05.574Z,4.47
2018-12-15T00:19:27.814Z,2.07
2018-12-15T00:21:54.084Z,1.87
2018-12-15T00:24:20.223Z,1.77
2018-12-15T00:26:46.542Z,1.57
2018-12-15T00:29:12.698Z,1.83
2018-12-15T00:31:38.823Z,1.20
2018-12-15T00:34:04.990Z,3.17
2018-12-15T00:36:31.120Z,2.20
2018-12-15T00:38:57.292Z,1.90
2018-12-15T00:41:23.427Z,3.63
2018-12-15T00:43:49.575Z,2.17
2018-12-15T00:46:15.723Z,1.20
2018-12-15T00:48:41.899Z,1.80
2018-12-15T00:51:08.867Z,2.17
2018-12-15T00:53:34.999Z,1.40
2018-12-15T00:56:01.122Z,1.30
2018-12-15T00:58:27.255Z,2.07
2018-12-15T01:00:53.392Z,2.43
2018-12-15T01:03:19.536Z,2.00
2018-12-15T01:05:45.667Z,2.80
2018-12-15T01:08:11.811Z,2.50
2018-12-15T01:10:37.937Z,1.77
2018-12-15T01:13:04.126Z,2.40
2018-12-15T01:15:36.296Z,1.87
2018-12-15T01:18:02.489Z,1.57
2018-12-15T01:20:28.635Z,1.53
2018-12-15T01:22:54.770Z,1.83
2018-12-15T01:25:20.918Z,1.37
2018-12-15T01:27:47.035Z,1.93
2018-12-15T01:30:13.207Z,1.93
2018-12-15T01:32:39.328Z,2.57
2018-12-15T01:35:05.583Z,2.00
2018-12-15T01:37:31.708Z,1.63
2018-12-15T01:39:57.855Z,2.23
2018-12-15T01:42:23.975Z,1.97
2018-12-15T01:44:50.127Z,1.30
2018-12-15T01:47:16.264Z,2.23
2018-12-15T01:49:42.399Z,2.07
2018-12-15T01:52:08.543Z,1.87
2018-12-15T01:54:34.683Z,4.57
2018-12-15T01:57:00.799Z,2.40
2018-12-15T01:59:26.927Z,2.13
2018-12-15T02:01:53.099Z,2.53
2018-12-15T02:04:19.242Z,2.83
2018-12-15T02:06:45.397Z,2.37
2018-12-15T02:09:11.579Z,3.87
2018-12-15T02:11:37.702Z,1.30
2018-12-15T02:14:03.968Z,2.83
2018-12-15T02:16:30.241Z,3.17
2018-12-15T02:18:56.366Z,2.47
2018-12-15T02:21:22.519Z,1.90
2018-12-15T02:23:48.631Z,3.13
2018-12-15T02:26:14.886Z,2.53
2018-12-15T02:28:41.018Z,2.50
2018-12-15T02:31:07.840Z,1.53
2018-12-15T02:33:33.966Z,2.27
2018-12-15T02:36:00.103Z,2.33
2018-12-15T02:38:26.237Z,2.03
2018-12-15T02:40:52.374Z,2.03
2018-12-15T02:43:18.499Z,2.40
2018-12-15T02:45:44.642Z,3.60
2018-12-15T02:48:10.776Z,3.63
2018-12-15T02:50:36.936Z,3.33
2018-12-15T02:53:03.103Z,2.43
2018-12-15T02:55:29.263Z,1.50
2018-12-15T02:57:55.411Z,2.17
2018-12-15T03:00:21.598Z,4.03
2018-12-15T03:02:47.730Z,2.13
2018-12-15T03:05:13.872Z,2.53
2018-12-15T03:07:40.074Z,3.23
2018-12-15T03:10:06.547Z,2.43
2018-12-15T03:12:32.695Z,2.40
2018-12-15T03:14:58.840Z,1.90
2018-12-15T03:17:25.004Z,3.27
2018-12-15T03:19:51.131Z,1.30
2018-12-15T03:22:17.263Z,2.00
2018-12-15T03:24:43.379Z,2.80
2018-12-15T03:27:09.499Z,4.30
2018-12-15T03:29:35.619Z,2.57
2018-12-15T03:32:01.751Z,2.43
2018-12-15T03:34:27.880Z,2.03
2018-12-15T03:36:54.017Z,2.73
2018-12-15T03:39:20.169Z,3.07
2018-12-15T03:41:46.555Z,3.83
2018-12-15T03:44:12.743Z,2.87
2018-12-15T03:46:38.957Z,2.33
2018-12-15T03:49:05.082Z,3.60
2018-12-15T03:51:31.238Z,2.37
2018-12-15T03:53:57.391Z,5.07
2018-12-15T03:56:23.573Z,2.70
2018-12-15T03:58:49.717Z,2.77
2018-12-15T04:01:15.897Z,2.57
2018-12-15T04:03:42.041Z,2.10
2018-12-15T04:06:08.152Z,2.77
2018-12-15T04:08:34.307Z,2.90
2018-12-15T04:11:00.427Z,2.83
2018-12-15T04:13:26.568Z,3.60
2018-12-15T04:15:52.730Z,3.37
2018-12-15T04:18:18.869Z,2.07
2018-12-15T04:20:45.016Z,3.37
2018-12-15T04:23:11.289Z,3.43
2018-12-15T04:25:37.420Z,3.03
2018-12-15T04:28:03.590Z,2.83
2018-12-15T04:30:29.729Z,1.90
2018-12-15T04:32:55.866Z,3.07
2018-12-15T04:35:22.006Z,3.50
2018-12-15T04:37:48.137Z,2.60
2018-12-15T04:40:14.508Z,2.67
2018-12-15T04:42:40.636Z,2.10
2018-12-15T04:45:07.651Z,2.33
2018-12-15T04:47:33.785Z,2.17
2018-12-15T04:49:59.939Z,3.20
2018-12-15T04:52:26.077Z,1.40
2018-12-15T04:54:52.183Z,1.57
2018-12-15T04:57:18.354Z,1.33
2018-12-15T04:59:44.560Z,2.00
2018-12-15T05:02:10.716Z,1.40
2018-12-15T05:04:36.856Z,2.13
2018-12-15T05:07:03.149Z,2.20
2018-12-15T05:09:29.304Z,2.00
2018-12-15T05:11:55.438Z,3.07
2018-12-15T05:14:21.584Z,2.63
2018-12-15T05:16:47.715Z,2.73
2018-12-15T05:19:13.888Z,2.00
2018-12-15T05:21:40.024Z,1.43
2018-12-15T05:24:06.149Z,1.50
2018-12-15T05:26:32.287Z,1.73
2018-12-15T05:28:58.407Z,2.13
2018-12-15T05:31:24.516Z,3.47
2018-12-15T05:33:50.643Z,1.77
2018-12-15T05:36:17.344Z,1.90
2018-12-15T05:38:43.483Z,1.47
2018-12-15T05:41:09.634Z,1.93
2018-12-15T05:43:35.844Z,1.50
2018-12-15T05:46:02.043Z,1.87
2018-12-15T05:48:28.195Z,1.53
2018-12-15T05:50:54.331Z,1.37
2018-12-15T05:53:20.462Z,1.17
2018-12-15T05:55:47.446Z,1.23
2018-12-15T05:58:13.599Z,1.23
2018-12-15T06:00:39.769Z,2.23
2018-12-15T06:03:05.905Z,1.70
2018-12-15T06:05:32.056Z,2.63
2018-12-15T06:07:58.647Z,1.57
2018-12-15T06:10:24.790Z,1.80
2018-12-15T06:12:50.915Z,1.30
2018-12-15T06:15:17.054Z,1.47
2018-12-15T06:17:43.187Z,1.40
2018-12-15T06:20:09.464Z,3.60
2018-12-15T06:22:35.596Z,1.63
2018-12-15T06:25:01.774Z,1.20
2018-12-15T06:27:27.904Z,1.30
2018-12-15T06:29:54.039Z,7.23
2018-12-15T06:32:20.216Z,1.67
2018-12-15T06:34:46.382Z,2.47
2018-12-15T06:37:12.525Z,4.10
2018-12-15T06:39:38.648Z,1.97
2018-12-15T06:42:04.779Z,5.40
2018-12-15T06:44:30.915Z,2.03
2018-12-15T06:46:57.030Z,1.67
2018-12-15T06:49:24.030Z,1.60
2018-12-15T06:51:50.150Z,3.00
2018-12-15T06:54:16.463Z,1.70
2018-12-15T06:56:42.619Z,2.23
2018-12-15T06:59:08.765Z,1.33
2018-12-15T07:01:34.913Z,1.70
2018-12-15T07:04:01.075Z,2.80
2018-12-15T07:06:27.212Z,1.47
2018-12-15T07:08:53.375Z,2.93
2018-12-15T07:11:19.499Z,2.83
2018-12-15T07:13:45.652Z,1.53
2018-12-15T07:16:11.770Z,1.93
2018-12-15T07:18:37.902Z,2.83
2018-12-15T07:21:04.057Z,1.80
2018-12-15T07:23:30.218Z,4.30
2018-12-15T07:25:56.386Z,1.40
2018-12-15T07:28:22.523Z,2.20
2018-12-15T07:30:48.659Z,1.87
2018-12-15T07:33:14.802Z,2.03
2018-12-15T07:35:40.949Z,3.00
2018-12-15T07:38:07.073Z,2.77
2018-12-15T07:40:33.193Z,1.47
2018-12-15T07:42:59.662Z,3.23
2018-12-15T07:45:25.786Z,3.53
2018-12-15T07:47:51.931Z,1.50
2018-12-15T07:50:18.083Z,2.73
2018-12-15T07:52:44.241Z,1.87
2018-12-15T07:55:10.370Z,2.77
2018-12-15T07:57:36.529Z,1.90
2018-12-15T08:00:04.803Z,1.33
2018-12-15T08:02:30.943Z,4.00
2018-12-15T08:04:57.072Z,3.90
2018-12-15T08:07:23.376Z,1.87
2018-12-15T08:09:50.239Z,2.33
2018-12-15T08:12:22.310Z,2.13
2018-12-15T08:14:48.468Z,2.43
2018-12-15T08:17:14.617Z,2.37
2018-12-15T08:19:40.756Z,3.07
2018-12-15T08:22:06.892Z,1.73
2018-12-15T08:24:33.039Z,1.63
2018-12-15T08:26:59.156Z,1.40
2018-12-15T08:29:25.287Z,1.97
2018-12-15T08:31:51.427Z,2.30
2018-12-15T08:34:17.586Z,1.83
2018-12-15T08:36:43.718Z,1.47
2018-12-15T08:39:09.872Z,5.57
2018-12-15T08:41:35.992Z,2.83
2018-12-15T08:44:02.268Z,1.30
2018-12-15T08:46:28.411Z,2.27
2018-12-15T08:48:54.564Z,2.00
2018-12-15T08:51:20.954Z,2.97
2018-12-15T08:53:47.090Z,2.13
2018-12-15T08:56:13.228Z,1.67
2018-12-15T08:58:39.372Z,1.70
2018-12-15T09:01:05.537Z,2.90
2018-12-15T09:03:31.657Z,1.60
2018-12-15T09:05:57.792Z,2.27
2018-12-15T09:08:23.934Z,3.27
2018-12-15T09:10:50.079Z,2.07
2018-12-15T09:13:16.215Z,2.83
2018-12-15T09:15:42.352Z,2.63
2018-12-15T09:18:09.771Z,1.60
2018-12-15T09:20:36.179Z,6.47
2018-12-15T09:23:02.328Z,4.47
2018-12-15T09:25:28.451Z,3.20
2018-12-15T09:27:54.563Z,3.23
2018-12-15T09:30:20.725Z,8.60
2018-12-15T09:32:46.859Z,4.87
2018-12-15T09:35:13.012Z,4.23
2018-12-15T09:37:39.132Z,3.93
2018-12-15T09:40:05.519Z,3.10
2018-12-15T09:42:31.650Z,3.50
2018-12-15T09:44:57.787Z,3.20
2018-12-15T09:47:24.699Z,2.00
2018-12-15T09:49:50.860Z,3.80
2018-12-15T09:52:16.986Z,3.30
2018-12-15T09:54:43.147Z,4.03
2018-12-15T09:57:09.395Z,3.43
2018-12-15T09:59:35.508Z,2.50
2018-12-15T10:02:01.693Z,3.53
2018-12-15T10:04:27.956Z,3.23
2018-12-15T10:06:54.100Z,6.07
2018-12-15T10:09:20.213Z,3.53
2018-12-15T10:11:46.344Z,4.57
2018-12-15T10:14:12.470Z,4.77
2018-12-15T10:16:38.615Z,3.13
2018-12-15T10:19:04.808Z,4.80
2018-12-15T10:21:30.940Z,3.83
2018-12-15T10:23:57.104Z,4.47
2018-12-15T10:26:23.248Z,4.23
2018-12-15T10:28:49.359Z,4.70
2018-12-15T10:31:21.483Z,4.10
2018-12-15T10:33:47.603Z,4.17
2018-12-15T10:36:13.731Z,3.20
2018-12-15T10:38:39.843Z,4.90
2018-12-15T10:41:05.986Z,4.23
2018-12-15T10:43:32.760Z,2.73
2018-12-15T10:45:58.894Z,2.83
2018-12-15T10:48:25.855Z,3.00
2018-12-15T10:50:52.027Z,3.47
2018-12-15T10:53:18.191Z,3.57
2018-12-15T10:55:44.310Z,3.50
2018-12-15T10:58:10.431Z,4.77
2018-12-15T11:03:46.929Z,3.70
2018-12-15T11:06:13.062Z,4.00
2018-12-15T11:08:39.203Z,4.37
2018-12-15T11:11:05.372Z,4.43
2018-12-15T11:13:31.500Z,4.33
2018-12-15T11:15:57.641Z,3.13
2018-12-15T11:18:23.795Z,3.93
2018-12-15T11:20:49.947Z,3.60
2018-12-15T11:23:16.094Z,4.17
2018-12-15T11:25:42.234Z,3.27
2018-12-15T11:28:08.432Z,2.80
2018-12-15T11:30:34.564Z,4.77
2018-12-15T11:33:00.703Z,4.13
2018-12-15T11:35:26.859Z,4.03
2018-12-15T11:37:53.006Z,5.60
2018-12-15T11:40:19.287Z,4.60
2018-12-15T11:42:45.422Z,5.73
2018-12-15T11:45:11.584Z,4.90
2018-12-15T11:47:37.759Z,6.27
2018-12-15T11:50:04.274Z,4.30
2018-12-15T11:52:30.397Z,4.20
2018-12-15T11:54:56.541Z,5.67
2018-12-15T11:57:22.681Z,4.87
2018-12-15T11:59:48.819Z,4.63
2018-12-15T12:02:14.958Z,4.73
2018-12-15T12:04:41.127Z,5.03
2018-12-15T12:07:07.925Z,6.43
2018-12-15T12:09:34.319Z,4.50
2018-12-15T12:12:00.457Z,5.03
2018-12-15T12:14:26.580Z,4.43
2018-12-15T12:16:52.719Z,5.00
2018-12-15T12:19:18.883Z,5.23
2018-12-15T12:21:45.028Z,7.30
2018-12-15T12:24:11.155Z,7.33
2018-12-15T12:26:37.311Z,5.27
2018-12-15T12:29:03.459Z,5.63
2018-12-15T12:31:29.591Z,8.40
2018-12-15T12:33:56.701Z,6.10
2018-12-15T12:36:22.835Z,8.33
2018-12-15T12:38:48.967Z,6.73
2018-12-15T12:41:15.112Z,8.80
2018-12-15T12:43:41.259Z,6.00
2018-12-15T12:46:08.295Z,5.10
2018-12-15T12:48:34.726Z,6.00
2018-12-15T12:51:00.882Z,8.67
2018-12-15T12:53:27.011Z,6.47
2018-12-15T12:55:53.186Z,5.53
2018-12-15T12:58:19.337Z,5.27
2018-12-15T13:00:45.480Z,5.87
2018-12-15T13:03:11.619Z,6.07
2018-12-15T13:05:37.761Z,5.00
2018-12-15T13:08:03.913Z,4.83
2018-12-15T13:10:30.077Z,6.87
2018-12-15T13:12:56.271Z,5.07
2018-12-15T13:15:22.399Z,4.90
2018-12-15T13:17:48.662Z,4.47
2018-12-15T13:20:14.827Z,4.50
2018-12-15T13:22:40.976Z,6.43
2018-12-15T13:25:07.194Z,4.33
2018-12-15T13:27:33.335Z,5.33
2018-12-15T13:29:59.480Z,6.20
2018-12-15T13:32:25.631Z,4.57
2018-12-15T13:34:51.751Z,5.57
2018-12-15T13:37:17.899Z,4.70
2018-12-15T13:39:44.032Z,5.30
2018-12-15T13:42:10.184Z,5.57
2018-12-15T13:44:36.313Z,5.17
2018-12-15T13:47:02.472Z,7.33
2018-12-15T13:49:28.611Z,6.13
2018-12-15T13:51:54.919Z,5.57
2018-12-15T13:54:21.047Z,3.53
2018-12-15T13:56:47.205Z,5.97
2018-12-15T13:59:13.401Z,4.93
2018-12-15T14:01:39.611Z,6.07
2018-12-15T14:04:05.735Z,4.63
2018-12-15T14:06:31.880Z,3.97
2018-12-15T14:08:58.033Z,3.97
2018-12-15T14:11:24.202Z,5.07
2018-12-15T14:13:50.350Z,5.53
2018-12-15T14:16:16.485Z,4.60
2018-12-15T14:18:42.647Z,4.83
2018-12-15T14:21:08.792Z,3.83
2018-12-15T14:23:34.946Z,4.00
2018-12-15T14:26:03.145Z,4.67
2018-12-15T14:28:29.284Z,4.80
2018-12-15T14:30:55.428Z,4.43
2018-12-15T14:33:21.544Z,5.17
2018-12-15T14:35:47.676Z,4.07
2018-12-15T14:38:13.820Z,3.30
2018-12-15T14:40:39.980Z,4.53
2018-12-15T14:43:06.147Z,4.47
2018-12-15T14:45:32.301Z,5.10
2018-12-15T14:47:58.454Z,4.30
2018-12-15T14:50:24.580Z,3.40
2018-12-15T14:52:50.772Z,4.10
2018-12-15T14:55:16.916Z,3.20
2018-12-15T14:57:43.070Z,3.50
2018-12-15T15:00:09.351Z,3.80
2018-12-15T15:02:35.503Z,4.43
2018-12-15T15:05:01.648Z,5.43
2018-12-15T15:07:27.815Z,4.90
2018-12-15T15:09:53.971Z,4.80
2018-12-15T15:12:20.095Z,4.07
2018-12-15T15:14:46.248Z,3.27
2018-12-15T15:17:12.411Z,3.83
2018-12-15T15:19:38.579Z,4.17
2018-12-15T15:22:04.748Z,3.23
2018-12-15T15:24:30.881Z,4.40
2018-12-15T15:26:57.039Z,4.67
2018-12-15T15:29:24.468Z,13.10
2018-12-15T15:31:50.624Z,4.57
2018-12-15T15:34:16.787Z,4.50
2018-12-15T15:36:42.906Z,7.27
2018-12-15T15:39:09.061Z,4.63
2018-12-15T15:41:35.190Z,6.90
2018-12-15T15:44:01.351Z,3.43
2018-12-15T15:46:27.511Z,2.40
2018-12-15T15:48:53.636Z,3.37
2018-12-15T15:51:19.805Z,4.77
2018-12-15T15:53:45.935Z,4.43
2018-12-15T15:56:12.069Z,3.80
2018-12-15T15:58:38.332Z,2.77
2018-12-15T16:01:04.479Z,2.73
2018-12-15T16:03:30.615Z,4.17
2018-12-15T16:05:56.769Z,3.77
2018-12-15T16:08:23.044Z,4.00
2018-12-15T16:10:49.207Z,3.93
2018-12-15T16:13:15.331Z,3.67
2018-12-15T16:15:41.467Z,4.97
2018-12-15T16:18:07.643Z,3.73
2018-12-15T16:20:33.802Z,3.00
2018-12-15T16:22:59.971Z,3.17
2018-12-15T16:25:26.715Z,3.37
2018-12-15T16:27:52.867Z,3.13
2018-12-15T16:30:19.034Z,4.07
2018-12-15T16:32:45.183Z,3.77
2018-12-15T16:35:11.319Z,2.30
2018-12-15T16:37:37.461Z,3.07
2018-12-15T16:40:06.110Z,3.23
2018-12-15T16:42:32.397Z,3.70
2018-12-15T16:44:58.561Z,2.57
2018-12-15T16:47:24.955Z,2.87
2018-12-15T16:49:51.091Z,4.33
2018-12-15T16:52:17.489Z,2.83
2018-12-15T16:54:43.895Z,3.43
2018-12-15T16:57:10.056Z,2.50
2018-12-15T16:59:36.176Z,3.33
2018-12-15T17:02:02.336Z,3.13
2018-12-15T17:04:28.496Z,4.87
2018-12-15T17:06:54.652Z,2.70
2018-12-15T17:09:20.796Z,3.13
2018-12-15T17:11:46.938Z,3.77
2018-12-15T17:14:13.055Z,3.37
2018-12-15T17:16:39.211Z,5.07
2018-12-15T17:19:05.349Z,2.43
2018-12-15T17:21:31.493Z,3.07
2018-12-15T17:23:57.626Z,2.87
2018-12-15T17:26:23.783Z,3.37
2018-12-15T17:28:49.940Z,2.97
2018-12-15T17:31:16.115Z,3.07
2018-12-15T17:33:42.250Z,3.60
2018-12-15T17:36:08.417Z,3.63
2018-12-15T17:38:34.558Z,2.77
2018-12-15T17:41:00.702Z,4.40
2018-12-15T17:43:26.881Z,4.57
2018-12-15T17:45:53.075Z,3.17
2018-12-15T17:48:19.204Z,3.40
2018-12-15T17:50:45.353Z,2.20
2018-12-15T17:53:12.438Z,3.97
2018-12-15T17:55:38.577Z,3.77
2018-12-15T17:58:04.747Z,5.43
2018-12-15T18:00:31.008Z,3.50
2018-12-15T18:02:57.192Z,2.60
2018-12-15T18:05:23.465Z,3.60
2018-12-15T18:07:49.648Z,4.20
2018-12-15T18:10:15.809Z,4.20
2018-12-15T18:12:41.937Z,5.43
2018-12-15T18:15:08.224Z,4.30
2018-12-15T18:17:34.388Z,5.03
2018-12-15T18:20:00.516Z,3.90
2018-12-15T18:22:26.667Z,3.20
2018-12-15T18:24:52.822Z,3.73
2018-12-15T18:27:18.988Z,3.30
2018-12-15T18:29:45.171Z,3.33
2018-12-15T18:32:11.341Z,3.17
2018-12-15T18:34:38.041Z,4.00
2018-12-15T18:37:04.489Z,2.40
2018-12-15T18:39:30.648Z,3.70
2018-12-15T18:41:56.919Z,5.23
2018-12-15T18:44:23.073Z,4.20
2018-12-15T18:46:49.222Z,9.50
2018-12-15T18:49:15.394Z,5.00
2018-12-15T18:51:41.603Z,4.20
2018-12-15T18:54:07.731Z,4.27
2018-12-15T18:56:34.071Z,6.03
2018-12-15T18:59:00.361Z,3.97
2018-12-15T19:01:26.522Z,3.07
2018-12-15T19:03:52.698Z,2.83
2018-12-15T19:06:18.863Z,4.53
2018-12-15T19:08:45.039Z,2.50
2018-12-15T19:11:11.195Z,3.30
2018-12-15T19:13:37.383Z,3.73
2018-12-15T19:16:03.555Z,3.23
2018-12-15T19:18:29.709Z,3.73
2018-12-15T19:20:55.840Z,6.60
2018-12-15T19:23:21.985Z,3.13
2018-12-15T19:25:48.134Z,3.37
2018-12-15T19:28:14.285Z,3.77
2018-12-15T19:30:40.433Z,3.17
2018-12-15T19:33:06.588Z,4.67
2018-12-15T19:35:32.752Z,3.10
2018-12-15T19:37:58.896Z,3.30
2018-12-15T19:40:25.056Z,4.23
2018-12-15T19:42:51.262Z,4.00
2018-12-15T19:45:17.477Z,6.53
2018-12-15T19:47:43.627Z,5.37
2018-12-15T19:50:09.787Z,5.73
2018-12-15T19:52:35.924Z,5.17
2018-12-15T19:55:02.114Z,5.40
2018-12-15T19:57:28.288Z,4.40
2018-12-15T19:59:55.406Z,6.10
2018-12-15T20:02:21.575Z,8.00
2018-12-15T20:04:47.755Z,6.90
2018-12-15T20:07:13.920Z,9.37
2018-12-15T20:09:40.087Z,6.30
2018-12-15T20:12:06.229Z,7.43
2018-12-15T20:14:32.373Z,7.83
2018-12-15T20:16:58.524Z,6.30
2018-12-15T20:19:24.647Z,8.87
2018-12-15T20:21:50.815Z,9.90
2018-12-15T20:24:16.950Z,8.43
2018-12-15T20:26:43.098Z,8.27
2018-12-15T20:29:09.261Z,9.17
2018-12-15T20:31:35.391Z,7.57
2018-12-15T20:34:01.529Z,15.27
2018-12-15T20:36:27.691Z,7.93
2018-12-15T20:38:53.828Z,7.83
2018-12-15T20:41:19.963Z,9.53
2018-12-15T20:43:46.116Z,7.63
2018-12-15T20:46:12.270Z,8.93
2018-12-15T20:48:38.390Z,9.37
2018-12-15T20:51:04.565Z,12.43
2018-12-15T20:53:30.693Z,11.17
2018-12-15T20:55:56.823Z,12.70
2018-12-15T20:58:22.955Z,9.13
2018-12-15T21:00:49.103Z,11.30
2018-12-15T21:03:15.267Z,9.87
2018-12-15T21:05:41.440Z,9.17
2018-12-15T21:08:07.572Z,12.97
2018-12-15T21:10:33.732Z,8.07
2018-12-15T21:12:59.863Z,6.77
2018-12-15T21:15:28.053Z,10.70
2018-12-15T21:17:54.201Z,9.03
2018-12-15T21:20:20.366Z,11.57
2018-12-15T21:22:46.504Z,7.77
2018-12-15T21:25:12.656Z,9.93
2018-12-15T21:27:38.809Z,10.20
2018-12-15T21:30:07.729Z,9.27
2018-12-15T21:32:33.876Z,7.13
2018-12-15T21:35:00.023Z,10.47
2018-12-15T21:37:26.371Z,9.40
2018-12-15T21:39:52.718Z,10.40
2018-12-15T21:42:18.835Z,10.03
2018-12-15T21:44:44.987Z,9.60
2018-12-15T21:47:11.135Z,9.70
2018-12-15T21:49:37.264Z,8.07
2018-12-15T21:52:03.399Z,11.43
2018-12-15T21:54:29.566Z,11.50
2018-12-15T21:56:55.713Z,10.40
2018-12-15T21:59:21.869Z,8.90
2018-12-15T22:01:48.035Z,9.43
2018-12-15T22:04:14.172Z,9.33
2018-12-15T22:06:40.330Z,10.83
2018-12-15T22:09:06.541Z,9.97
2018-12-15T22:11:32.699Z,11.70
2018-12-15T22:13:58.835Z,9.13
2018-12-15T22:16:24.991Z,11.50
2018-12-15T22:18:51.139Z,11.93
2018-12-15T22:21:17.264Z,11.67
2018-12-15T22:23:43.412Z,10.23
2018-12-15T22:26:10.515Z,9.00
2018-12-15T22:28:36.695Z,8.37
2018-12-15T22:31:02.845Z,10.47
2018-12-15T22:33:29.840Z,10.53
2018-12-15T22:35:55.959Z,8.47
2018-12-15T22:38:22.088Z,9.27
2018-12-15T22:40:48.373Z,8.27
2018-12-15T22:43:14.524Z,7.47
2018-12-15T22:45:40.675Z,10.57
2018-12-15T22:48:06.842Z,9.80
2018-12-15T22:50:32.985Z,9.07
2018-12-15T22:52:59.131Z,12.40
2018-12-15T22:55:25.239Z,8.87
2018-12-15T22:57:51.408Z,7.77
2018-12-15T23:00:17.735Z,10.70
2018-12-15T23:02:44.029Z,10.97
2018-12-15T23:05:10.173Z,11.33
2018-12-15T23:07:36.321Z,11.33
2018-12-15T23:10:04.009Z,12.03
2018-12-15T23:12:30.149Z,11.20
2018-12-15T23:14:56.321Z,10.50
2018-12-15T23:17:22.490Z,10.50
2018-12-15T23:19:48.616Z,9.23
2018-12-15T23:22:16.445Z,8.17
2018-12-15T23:24:42.845Z,9.07
2018-12-15T23:27:08.983Z,11.93
2018-12-15T23:29:35.160Z,10.97
2018-12-15T23:32:01.280Z,9.13
2018-12-15T23:34:27.459Z,13.23
2018-12-15T23:36:53.631Z,11.07
2018-12-15T23:39:19.778Z,8.53
2018-12-15T23:41:45.910Z,7.43
2018-12-15T23:44:12.043Z,8.03
2018-12-15T23:46:38.172Z,8.87
2018-12-15T23:49:04.323Z,7.73
2018-12-15T23:51:30.438Z,11.83
2018-12-15T23:53:56.568Z,7.77
2018-12-15T23:56:22.729Z,9.83
2018-12-15T23:58:48.865Z,10.63
